Time;durP1;ratioP1;P1;durP2;ratioP2;P2;SDS_P1;SDS_P2;PMS_P1;PMS_P2;Temp;Humidity;BMP_temperature;BMP_pressure;BME280_temperature;BME280_humidity;BME280_pressure;Samples;Min_cycle;Max_cycle;Signal;HPM_P1;HPM_P2
2023/05/12 00:01:59;;;;;;;2.55;2.42;;;10.00;99.90;;;;;;5069115;28;20198;-73
2023/05/12 00:04:27;;;;;;;3.03;2.83;;;9.90;99.90;;;;;;5070451;28;20253;-74
2023/05/12 00:06:54;;;;;;;3.03;2.83;;;9.90;99.90;;;;;;5063152;28;20237;-72
2023/05/12 00:09:21;;;;;;;3.00;2.80;;;10.00;99.90;;;;;;5061292;28;20237;-72
2023/05/12 00:11:48;;;;;;;2.65;2.55;;;10.00;99.90;;;;;;5059341;28;20262;-74
2023/05/12 00:14:15;;;;;;;2.63;2.50;;;9.90;99.90;;;;;;5060165;28;20306;-69
2023/05/12 00:16:42;;;;;;;2.30;2.20;;;9.90;99.90;;;;;;5062005;28;20216;-74
2023/05/12 00:19:09;;;;;;;2.38;2.25;;;9.90;99.90;;;;;;5059371;28;20237;-72
2023/05/12 00:21:37;;;;;;;2.20;2.10;;;9.90;99.90;;;;;;5061098;28;20259;-71
2023/05/12 00:24:05;;;;;;;2.20;2.10;;;9.90;99.90;;;;;;5057584;28;20264;-72
2023/05/12 00:26:32;;;;;;;2.30;2.20;;;9.90;99.90;;;;;;5059472;28;20256;-68
2023/05/12 00:28:59;;;;;;;2.60;2.50;;;9.90;99.90;;;;;;5059708;28;20268;-71
2023/05/12 00:31:26;;;;;;;2.13;1.92;;;9.90;99.90;;;;;;5059983;28;20207;-71
2023/05/12 00:33:53;;;;;;;2.60;2.50;;;9.90;99.90;;;;;;5056588;28;20218;-71
2023/05/12 00:36:20;;;;;;;2.78;2.58;;;9.90;99.90;;;;;;5061169;28;20230;-69
2023/05/12 00:38:48;;;;;;;2.60;2.50;;;9.90;99.90;;;;;;5059568;28;20210;-71
2023/05/12 00:41:15;;;;;;;2.50;2.40;;;9.90;99.90;;;;;;5055992;28;20210;-71
2023/05/12 00:43:42;;;;;;;3.25;3.05;;;9.80;99.90;;;;;;5060507;28;20256;-71
2023/05/12 00:46:10;;;;;;;3.50;2.95;;;9.80;99.90;;;;;;5058204;28;20294;-69
2023/05/12 00:48:37;;;;;;;2.40;2.30;;;9.70;99.90;;;;;;5059682;28;20280;-73
2023/05/12 00:51:05;;;;;;;2.53;2.33;;;9.70;99.90;;;;;;5059355;28;20403;-74
2023/05/12 00:53:32;;;;;;;2.40;2.30;;;9.60;99.90;;;;;;5059379;28;20224;-70
2023/05/12 00:56:01;;;;;;;2.20;2.10;;;9.60;99.90;;;;;;5060141;28;20279;-74
2023/05/12 00:58:27;;;;;;;2.72;2.63;;;9.70;99.90;;;;;;5057542;28;20825;-73
2023/05/12 01:00:55;;;;;;;2.83;2.63;;;9.60;99.90;;;;;;5058921;28;20203;-71
2023/05/12 01:03:22;;;;;;;2.63;2.53;;;9.60;99.90;;;;;;5061232;28;21205;-72
2023/05/12 01:05:51;;;;;;;2.45;2.35;;;9.60;99.90;;;;;;5060334;28;20194;-73
2023/05/12 01:08:20;;;;;;;2.40;2.30;;;9.60;99.90;;;;;;5059770;28;20206;-70
2023/05/12 01:10:48;;;;;;;2.33;2.22;;;9.60;99.90;;;;;;5059500;28;20194;-70
2023/05/12 01:13:16;;;;;;;2.33;2.10;;;9.60;99.90;;;;;;5062732;28;20316;-69
2023/05/12 01:15:47;;;;;;;2.05;1.95;;;9.60;99.90;;;;;;5059867;28;20822;-73
2023/05/12 01:18:15;;;;;;;1.90;1.80;;;9.60;99.90;;;;;;5059355;28;20215;-74
2023/05/12 01:20:43;;;;;;;1.80;1.70;;;9.60;99.90;;;;;;5060863;28;20229;-72
2023/05/12 01:23:11;;;;;;;1.73;1.63;;;9.60;99.90;;;;;;5058500;28;20241;-70
2023/05/12 01:25:41;;;;;;;1.50;1.50;;;9.60;99.90;;;;;;5062639;28;20234;-71
2023/05/12 01:28:10;;;;;;;1.20;1.20;;;9.50;99.90;;;;;;5057382;28;20206;-73
2023/05/12 01:30:40;;;;;;;1.58;1.48;;;9.60;99.90;;;;;;5063537;28;20222;-71
2023/05/12 01:33:08;;;;;;;1.38;1.30;;;9.50;99.90;;;;;;5060652;28;20226;-73
2023/05/12 01:35:35;;;;;;;1.90;1.67;;;9.50;99.90;;;;;;5064102;28;20229;-69
2023/05/12 01:38:03;;;;;;;1.15;1.15;;;9.50;99.90;;;;;;5062308;28;20202;-72
2023/05/12 01:40:30;;;;;;;1.20;1.20;;;9.50;99.90;;;;;;5061713;28;20708;-71
2023/05/12 01:42:57;;;;;;;1.10;1.10;;;9.60;99.90;;;;;;5062552;28;20303;-71
2023/05/12 01:45:25;;;;;;;1.40;1.30;;;9.60;99.90;;;;;;5062640;28;20194;-69
2023/05/12 01:47:52;;;;;;;1.08;1.08;;;9.50;99.90;;;;;;5066346;28;20289;-71
2023/05/12 01:50:19;;;;;;;1.00;1.00;;;9.50;99.90;;;;;;5063297;28;20222;-70
2023/05/12 01:52:46;;;;;;;2.35;1.50;;;9.50;99.90;;;;;;5063191;28;20306;-72
2023/05/12 01:55:13;;;;;;;2.03;1.92;;;9.50;99.90;;;;;;5060537;28;20233;-71
2023/05/12 01:57:40;;;;;;;2.88;2.67;;;9.40;99.90;;;;;;5065086;28;20194;-74
2023/05/12 02:00:08;;;;;;;2.67;2.55;;;9.40;99.90;;;;;;5062345;28;20251;-69
2023/05/12 02:02:36;;;;;;;2.50;2.40;;;9.40;99.90;;;;;;5058448;28;20286;-70
2023/05/12 02:05:04;;;;;;;2.35;2.25;;;9.40;99.90;;;;;;5063071;28;20282;-73
2023/05/12 02:07:31;;;;;;;2.30;2.20;;;9.40;99.90;;;;;;5064263;28;20252;-73
2023/05/12 02:09:57;;;;;;;2.20;2.10;;;9.40;99.90;;;;;;5061284;28;20659;-71
2023/05/12 02:12:24;;;;;;;1.90;1.80;;;9.40;99.90;;;;;;5064012;28;20255;-72
2023/05/12 02:14:51;;;;;;;2.10;1.90;;;9.40;99.90;;;;;;5063419;28;20199;-71
2023/05/12 02:17:18;;;;;;;2.00;1.90;;;9.50;99.90;;;;;;5063034;28;20290;-70
2023/05/12 02:19:46;;;;;;;2.10;2.00;;;9.50;99.90;;;;;;5061730;28;20282;-71
2023/05/12 02:22:13;;;;;;;1.98;1.88;;;9.50;99.90;;;;;;5063073;28;20210;-74
2023/05/12 02:24:40;;;;;;;1.90;1.80;;;9.50;99.90;;;;;;5062987;28;20272;-72
2023/05/12 02:27:07;;;;;;;2.00;1.90;;;9.50;99.90;;;;;;5058748;28;20238;-70
2023/05/12 02:29:35;;;;;;;1.90;1.80;;;9.50;99.90;;;;;;5061628;28;20276;-75
2023/05/12 02:32:02;;;;;;;2.00;1.90;;;9.40;99.90;;;;;;5061512;28;20228;-70
2023/05/12 02:34:29;;;;;;;2.20;2.10;;;9.40;99.90;;;;;;5059748;28;20272;-75
2023/05/12 02:36:57;;;;;;;2.25;2.05;;;9.40;99.90;;;;;;5064008;28;20248;-70
2023/05/12 02:39:24;;;;;;;2.55;2.40;;;9.40;99.90;;;;;;5059814;28;20233;-72
2023/05/12 02:41:51;;;;;;;2.78;2.58;;;9.40;99.90;;;;;;5063582;28;20232;-71
2023/05/12 02:44:21;;;;;;;2.40;2.30;;;9.40;99.90;;;;;;5059853;28;20272;-70
2023/05/12 02:46:48;;;;;;;2.60;2.50;;;9.40;99.90;;;;;;5060960;28;20194;-70
2023/05/12 02:49:15;;;;;;;2.65;2.50;;;9.40;99.90;;;;;;5062059;28;20218;-70
2023/05/12 02:51:41;;;;;;;2.50;2.30;;;9.40;99.90;;;;;;5060721;28;20206;-70
2023/05/12 02:54:10;;;;;;;2.00;1.90;;;9.40;99.90;;;;;;5061538;28;20229;-70
2023/05/12 02:56:37;;;;;;;1.73;1.63;;;9.40;99.90;;;;;;5058618;28;20238;-70
2023/05/12 02:59:04;;;;;;;1.90;1.80;;;9.40;99.90;;;;;;5060026;28;20194;-71
2023/05/12 03:01:31;;;;;;;1.65;1.55;;;9.40;99.90;;;;;;5058649;28;20234;-70
2023/05/12 03:03:57;;;;;;;1.92;1.83;;;9.40;99.90;;;;;;5060144;28;20309;-72
2023/05/12 03:06:25;;;;;;;2.10;2.00;;;9.30;99.90;;;;;;5061127;28;20286;-71
2023/05/12 03:08:54;;;;;;;2.00;1.90;;;9.20;99.90;;;;;;5062740;28;20220;-70
2023/05/12 03:11:23;;;;;;;1.80;1.70;;;9.10;99.90;;;;;;5062648;28;20198;-70
2023/05/12 03:13:50;;;;;;;1.73;1.63;;;9.00;99.90;;;;;;5060510;28;20280;-71
2023/05/12 03:16:17;;;;;;;1.55;1.45;;;9.00;99.90;;;;;;5058836;28;20297;-71
2023/05/12 03:18:44;;;;;;;1.52;1.52;;;9.00;99.90;;;;;;5059898;28;20198;-72
2023/05/12 03:21:11;;;;;;;2.03;1.92;;;9.00;99.90;;;;;;5061268;28;20280;-71
2023/05/12 03:23:38;;;;;;;1.50;1.50;;;9.10;99.90;;;;;;5060853;28;20226;-72
2023/05/12 03:26:05;;;;;;;1.50;1.50;;;9.10;99.90;;;;;;5064056;28;20297;-74
2023/05/12 03:28:33;;;;;;;1.35;1.35;;;9.10;99.90;;;;;;5060273;28;20202;-70
2023/05/12 03:31:00;;;;;;;1.50;1.50;;;9.20;99.90;;;;;;5061257;28;20704;-71
2023/05/12 03:33:28;;;;;;;1.42;1.42;;;9.30;99.90;;;;;;5063320;28;20305;-68
2023/05/12 03:35:55;;;;;;;1.45;1.42;;;9.30;99.90;;;;;;5063730;28;20275;-72
2023/05/12 03:38:22;;;;;;;1.98;1.88;;;9.30;99.90;;;;;;5063867;28;20206;-71
2023/05/12 03:40:51;;;;;;;1.73;1.67;;;9.30;99.90;;;;;;5061340;28;20603;-71
2023/05/12 03:43:18;;;;;;;1.55;1.55;;;9.30;99.90;;;;;;5062607;28;20280;-71
2023/05/12 03:45:46;;;;;;;1.50;1.50;;;9.30;99.90;;;;;;5058860;28;20713;-71
2023/05/12 03:48:13;;;;;;;1.67;1.58;;;9.30;99.90;;;;;;5059445;28;20281;-70
2023/05/12 03:50:40;;;;;;;1.50;1.50;;;9.30;99.90;;;;;;5061663;28;20321;-71
2023/05/12 03:53:07;;;;;;;1.70;1.65;;;9.30;99.90;;;;;;5060128;28;20225;-68
2023/05/12 03:55:34;;;;;;;1.55;1.45;;;9.40;99.90;;;;;;5058492;28;20279;-71
2023/05/12 03:58:01;;;;;;;1.73;1.63;;;9.40;99.90;;;;;;5061378;28;20628;-69
2023/05/12 04:00:28;;;;;;;1.38;1.38;;;9.40;99.90;;;;;;5057293;28;20264;-73
2023/05/12 04:02:56;;;;;;;1.80;1.70;;;9.40;99.90;;;;;;5062151;28;20371;-70
2023/05/12 04:05:23;;;;;;;1.60;1.50;;;9.40;99.90;;;;;;5060180;28;20202;-73
2023/05/12 04:07:50;;;;;;;1.60;1.60;;;9.40;99.90;;;;;;5063124;28;20248;-72
2023/05/12 04:10:18;;;;;;;1.52;1.52;;;9.40;99.90;;;;;;5059644;28;20236;-71
2023/05/12 04:12:44;;;;;;;1.40;1.40;;;9.40;99.90;;;;;;5063012;28;20234;-70
2023/05/12 04:15:13;;;;;;;1.80;1.70;;;9.50;99.90;;;;;;5059756;28;20198;-71
2023/05/12 04:17:40;;;;;;;1.60;1.50;;;9.50;99.90;;;;;;5059912;28;20197;-71
2023/05/12 04:20:09;;;;;;;1.60;1.50;;;9.50;99.90;;;;;;5056392;28;20605;-72
2023/05/12 04:22:36;;;;;;;1.45;1.45;;;9.60;99.90;;;;;;5062855;28;20202;-71
2023/05/12 04:25:03;;;;;;;1.70;1.60;;;9.60;99.90;;;;;;5059135;28;20194;-71
2023/05/12 04:27:30;;;;;;;1.60;1.50;;;9.60;99.90;;;;;;5059448;28;20198;-71
2023/05/12 04:29:57;;;;;;;1.83;1.73;;;9.60;99.90;;;;;;5059077;28;20616;-73
2023/05/12 04:32:24;;;;;;;1.63;1.63;;;9.60;99.90;;;;;;5060984;28;20282;-72
2023/05/12 04:34:54;;;;;;;1.30;1.30;;;9.60;99.90;;;;;;5059694;28;20285;-73
2023/05/12 04:37:22;;;;;;;1.50;1.40;;;9.60;99.90;;;;;;5061737;28;20206;-72
2023/05/12 04:39:49;;;;;;;1.52;1.52;;;9.70;99.90;;;;;;5059070;28;20675;-68
2023/05/12 04:42:16;;;;;;;1.48;1.48;;;9.70;99.90;;;;;;5059899;28;20230;-69
2023/05/12 04:44:44;;;;;;;1.70;1.60;;;9.70;99.90;;;;;;5060666;28;20225;-71
2023/05/12 04:47:11;;;;;;;1.88;1.77;;;9.70;99.90;;;;;;5064477;28;20593;-72
2023/05/12 04:49:38;;;;;;;2.08;1.98;;;9.70;99.90;;;;;;5059865;28;20253;-69
2023/05/12 04:52:06;;;;;;;2.28;2.10;;;9.60;99.90;;;;;;5063168;28;20285;-70
2023/05/12 04:54:34;;;;;;;2.60;2.40;;;9.60;99.90;;;;;;5063461;28;20221;-70
2023/05/12 04:57:02;;;;;;;2.17;2.08;;;9.60;99.90;;;;;;5059441;28;20210;-73
2023/05/12 04:59:30;;;;;;;2.60;2.50;;;9.60;99.90;;;;;;5059829;28;20276;-73
2023/05/12 05:01:57;;;;;;;2.63;2.45;;;9.60;99.90;;;;;;5059341;28;20306;-71
2023/05/12 05:04:24;;;;;;;3.15;2.95;;;9.60;99.90;;;;;;5058987;28;20692;-70
2023/05/12 05:06:51;;;;;;;2.78;2.67;;;9.70;99.90;;;;;;5057338;28;20257;-70
2023/05/12 05:09:18;;;;;;;2.20;2.10;;;9.70;99.90;;;;;;5062383;28;20293;-72
2023/05/12 05:11:47;;;;;;;2.28;2.17;;;9.80;99.90;;;;;;5067287;28;20221;-72
2023/05/12 05:14:14;;;;;;;2.50;2.30;;;9.80;99.90;;;;;;5060560;28;20276;-70
2023/05/12 05:16:41;;;;;;;2.30;2.20;;;9.80;99.90;;;;;;5064418;28;20198;-70
2023/05/12 05:19:08;;;;;;;2.53;2.42;;;9.90;99.90;;;;;;5062779;28;20201;-70
2023/05/12 05:21:35;;;;;;;3.45;2.67;;;9.90;99.90;;;;;;5064946;28;20277;-73
2023/05/12 05:24:02;;;;;;;3.00;2.80;;;9.90;99.90;;;;;;5064955;28;20300;-75
2023/05/12 05:26:29;;;;;;;3.55;3.35;;;10.00;99.90;;;;;;5067303;28;20711;-71
2023/05/12 05:28:57;;;;;;;3.40;3.20;;;9.90;99.90;;;;;;5064624;28;20222;-72
2023/05/12 05:31:27;;;;;;;3.95;3.55;;;9.90;99.90;;;;;;5061172;28;20267;-72
2023/05/12 05:33:54;;;;;;;4.15;3.75;;;9.80;99.90;;;;;;5065338;28;20214;-74
2023/05/12 05:36:22;;;;;;;4.22;3.92;;;9.80;99.90;;;;;;5065594;28;20783;-71
2023/05/12 05:38:49;;;;;;;4.10;3.80;;;9.80;99.90;;;;;;5064594;28;20194;-69
2023/05/12 05:41:16;;;;;;;4.38;4.07;;;9.90;99.90;;;;;;5064354;28;20238;-72
2023/05/12 05:43:42;;;;;;;4.32;3.78;;;9.90;99.90;;;;;;5063806;28;21980;-72
2023/05/12 05:46:11;;;;;;;4.18;3.88;;;9.90;99.90;;;;;;5067380;28;20281;-73
2023/05/12 05:48:38;;;;;;;4.50;4.20;;;10.00;99.90;;;;;;5066768;28;20794;-70
2023/05/12 05:51:05;;;;;;;10.57;4.82;;;10.10;99.90;;;;;;5064814;28;20249;-72
2023/05/12 05:53:32;;;;;;;101.90;8.98;;;10.10;99.90;;;;;;5063256;28;20783;-72
2023/05/12 05:56:00;;;;;;;21.33;6.95;;;10.00;99.90;;;;;;5066212;28;20194;-74
2023/05/12 05:58:27;;;;;;;12.35;5.80;;;10.00;99.90;;;;;;5057375;28;20202;-70
2023/05/12 06:00:54;;;;;;;7.28;6.57;;;10.00;99.90;;;;;;5064375;28;20190;-71
2023/05/12 06:03:23;;;;;;;6.47;5.97;;;10.00;99.90;;;;;;5062976;28;20265;-67
2023/05/12 06:05:50;;;;;;;6.03;5.53;;;10.10;99.90;;;;;;5066496;28;20198;-72
2023/05/12 06:08:17;;;;;;;6.07;5.45;;;10.20;99.90;;;;;;5062685;28;20283;-73
2023/05/12 06:10:44;;;;;;;8.02;7.25;;;10.20;99.90;;;;;;5064687;28;20217;-69
2023/05/12 06:13:11;;;;;;;5.22;4.82;;;10.20;99.90;;;;;;5066244;28;20315;-72
2023/05/12 06:15:38;;;;;;;5.82;5.32;;;10.30;99.90;;;;;;5062985;28;20746;-75
2023/05/12 06:18:05;;;;;;;5.18;4.78;;;10.40;99.90;;;;;;5062640;28;20210;-71
2023/05/12 06:20:33;;;;;;;4.60;4.20;;;10.50;99.90;;;;;;5060679;28;20713;-73
2023/05/12 06:23:00;;;;;;;4.55;4.25;;;10.80;99.90;;;;;;5064186;28;20725;-71
2023/05/12 06:25:27;;;;;;;4.32;4.03;;;10.90;99.90;;;;;;5061785;28;20194;-71
2023/05/12 06:27:54;;;;;;;6.90;5.20;;;11.00;99.90;;;;;;5060299;28;20226;-72
2023/05/12 06:30:21;;;;;;;5.20;4.70;;;10.90;99.90;;;;;;5063439;28;20654;-72
2023/05/12 06:32:48;;;;;;;4.32;4.03;;;10.80;99.90;;;;;;5058792;28;20226;-72
2023/05/12 06:35:15;;;;;;;4.22;3.92;;;10.70;99.90;;;;;;5058684;28;20226;-72
2023/05/12 06:37:48;;;;;;;3.53;3.22;;;10.70;99.90;;;;;;5059154;28;20294;-71
2023/05/12 06:40:15;;;;;;;4.63;4.32;;;10.70;99.90;;;;;;5060287;28;20852;-71
2023/05/12 06:42:42;;;;;;;4.45;4.10;;;10.70;99.90;;;;;;5059213;28;20222;-72
2023/05/12 06:45:11;;;;;;;3.92;3.63;;;10.70;99.90;;;;;;5060438;28;20194;-72
2023/05/12 06:47:38;;;;;;;4.45;4.05;;;10.60;99.90;;;;;;5060074;28;20212;-71
2023/05/12 06:50:06;;;;;;;4.35;3.95;;;10.60;99.90;;;;;;5057886;28;20210;-76
2023/05/12 06:52:33;;;;;;;3.65;3.42;;;10.60;99.90;;;;;;5060471;28;20229;-73
2023/05/12 06:55:02;;;;;;;3.28;3.08;;;10.70;99.90;;;;;;5063339;28;20222;-74
2023/05/12 06:57:28;;;;;;;3.67;3.40;;;10.80;99.90;;;;;;5062149;28;20198;-71
2023/05/12 06:59:55;;;;;;;3.40;3.20;;;10.90;99.90;;;;;;5059442;28;20288;-73
2023/05/12 07:02:22;;;;;;;3.10;2.90;;;10.90;99.90;;;;;;5060971;28;20240;-72
2023/05/12 07:04:49;;;;;;;3.20;3.00;;;11.00;99.90;;;;;;5061908;28;20194;-73
2023/05/12 07:07:16;;;;;;;3.30;3.00;;;11.20;99.90;;;;;;5059110;28;20302;-71
2023/05/12 07:09:44;;;;;;;3.30;3.00;;;11.20;99.90;;;;;;5059246;28;20268;-71
2023/05/12 07:12:12;;;;;;;3.10;2.90;;;11.20;99.90;;;;;;5058585;28;20618;-72
2023/05/12 07:14:39;;;;;;;3.33;3.13;;;11.20;99.90;;;;;;5060715;28;20222;-73
2023/05/12 07:17:06;;;;;;;3.65;3.35;;;11.20;99.90;;;;;;5060543;28;20207;-72
2023/05/12 07:19:34;;;;;;;3.13;2.92;;;11.20;99.90;;;;;;5056048;28;20260;-73
2023/05/12 07:22:01;;;;;;;3.50;3.30;;;11.30;99.90;;;;;;5064269;28;20762;-72
2023/05/12 07:24:28;;;;;;;3.55;2.88;;;11.30;99.90;;;;;;5063706;28;20222;-71
2023/05/12 07:26:55;;;;;;;2.95;2.75;;;11.30;99.90;;;;;;5062750;28;20237;-71
2023/05/12 07:29:23;;;;;;;2.72;2.25;;;11.40;99.90;;;;;;5062064;28;20777;-72
2023/05/12 07:31:51;;;;;;;2.30;2.20;;;11.30;99.90;;;;;;5057270;28;20633;-71
2023/05/12 07:34:18;;;;;;;2.85;2.65;;;11.40;99.90;;;;;;5060385;28;20316;-71
2023/05/12 07:36:45;;;;;;;2.83;2.63;;;11.50;99.90;;;;;;5054556;28;20277;-73
2023/05/12 07:39:13;;;;;;;3.03;2.80;;;11.70;99.90;;;;;;5055614;28;20998;-73
2023/05/12 07:41:41;;;;;;;2.60;2.40;;;11.80;99.90;;;;;;5057649;28;20241;-73
2023/05/12 07:44:08;;;;;;;2.60;2.40;;;11.90;99.90;;;;;;5054939;28;20314;-72
2023/05/12 07:46:36;;;;;;;2.88;2.67;;;12.00;99.90;;;;;;5054258;28;20194;-73
2023/05/12 07:49:03;;;;;;;2.65;2.45;;;12.10;99.90;;;;;;5050089;28;20626;-72
2023/05/12 07:51:30;;;;;;;2.60;2.33;;;12.20;99.90;;;;;;5057940;28;20222;-72
2023/05/12 07:53:57;;;;;;;2.80;2.60;;;12.30;99.90;;;;;;5055683;28;20308;-72
2023/05/12 07:56:24;;;;;;;2.38;2.28;;;12.40;99.90;;;;;;5056152;28;20203;-73
2023/05/12 07:58:51;;;;;;;2.78;2.58;;;12.40;99.90;;;;;;5056763;28;20293;-71
2023/05/12 08:01:18;;;;;;;2.72;2.40;;;12.30;99.90;;;;;;5056176;28;20187;-72
2023/05/12 08:03:46;;;;;;;2.53;2.42;;;12.30;99.90;;;;;;5054933;28;20800;-72
2023/05/12 08:06:13;;;;;;;2.28;2.13;;;12.40;99.90;;;;;;5058042;28;20230;-71
2023/05/12 08:08:40;;;;;;;2.20;2.10;;;12.50;99.90;;;;;;5057512;28;20663;-72
2023/05/12 08:11:07;;;;;;;2.03;1.83;;;12.60;99.90;;;;;;5056067;28;20970;-72
2023/05/12 08:13:34;;;;;;;2.30;2.20;;;12.80;99.90;;;;;;5057065;28;20312;-74
2023/05/12 08:16:01;;;;;;;2.22;2.13;;;13.00;99.90;;;;;;5057674;28;20222;-74
2023/05/12 08:18:28;;;;;;;1.70;1.60;;;13.10;99.90;;;;;;5054314;28;20230;-73
2023/05/12 08:20:56;;;;;;;2.10;2.00;;;13.50;99.90;;;;;;5053573;28;20231;-72
2023/05/12 08:23:23;;;;;;;1.90;1.80;;;13.70;99.90;;;;;;5058543;28;20309;-73
2023/05/12 08:25:50;;;;;;;2.33;2.10;;;13.90;99.90;;;;;;5056097;28;20296;-73
2023/05/12 08:28:17;;;;;;;2.20;2.10;;;13.90;99.90;;;;;;5054965;28;20231;-73
2023/05/12 08:30:44;;;;;;;2.00;1.90;;;13.90;99.90;;;;;;5055549;28;20933;-75
2023/05/12 08:33:11;;;;;;;1.95;1.70;;;13.80;99.90;;;;;;5058625;28;20250;-74
2023/05/12 08:35:38;;;;;;;2.40;1.98;;;13.70;99.90;;;;;;5055458;28;20198;-73
2023/05/12 08:38:07;;;;;;;2.17;1.60;;;13.60;99.90;;;;;;5055856;28;20242;-73
2023/05/12 08:40:41;;;;;;;2.00;1.90;;;13.50;99.90;;;;;;5055359;28;20205;-74
2023/05/12 08:43:18;;;;;;;2.08;1.85;;;13.30;99.90;;;;;;5057058;28;20309;-74
2023/05/12 08:45:47;;;;;;;1.98;1.88;;;13.20;99.90;;;;;;5055325;28;20232;-74
2023/05/12 08:48:15;;;;;;;1.70;1.60;;;13.20;99.90;;;;;;5055440;28;20891;-72
2023/05/12 08:50:44;;;;;;;2.15;1.63;;;13.20;99.90;;;;;;5054262;28;20337;-73
2023/05/12 08:53:15;;;;;;;1.80;1.70;;;13.20;99.90;;;;;;5053211;28;20221;-74
2023/05/12 08:55:43;;;;;;;1.80;1.70;;;13.20;99.90;;;;;;5051949;28;20311;-74
2023/05/12 08:58:11;;;;;;;1.60;1.50;;;13.20;99.90;;;;;;5052628;28;21109;-71
2023/05/12 09:00:39;;;;;;;1.23;1.23;;;13.20;99.90;;;;;;5055040;28;20209;-72
2023/05/12 09:03:07;;;;;;;1.73;1.63;;;13.30;99.90;;;;;;5056789;28;20218;-73
2023/05/12 09:05:34;;;;;;;1.58;1.45;;;13.40;99.90;;;;;;5057549;28;20215;-72
2023/05/12 09:08:02;;;;;;;1.83;1.73;;;13.40;99.90;;;;;;5052463;28;20198;-73
2023/05/12 09:10:30;;;;;;;1.63;1.52;;;13.40;99.90;;;;;;5052928;28;20201;-72
2023/05/12 09:13:03;;;;;;;2.47;1.60;;;13.40;99.90;;;;;;5058073;28;20653;-72
2023/05/12 09:15:36;;;;;;;1.40;1.40;;;13.30;99.90;;;;;;5055287;28;20294;-73
2023/05/12 09:18:03;;;;;;;1.60;1.50;;;13.20;99.90;;;;;;5056357;28;20194;-72
2023/05/12 09:20:30;;;;;;;1.65;1.55;;;13.10;99.90;;;;;;5057737;28;20734;-72
2023/05/12 09:22:57;;;;;;;1.80;1.70;;;13.10;99.90;;;;;;5055849;28;20210;-73
2023/05/12 09:25:24;;;;;;;1.70;1.60;;;13.10;99.90;;;;;;5055876;28;20680;-72
2023/05/12 09:27:56;;;;;;;2.05;1.83;;;13.10;99.90;;;;;;5054631;28;20190;-73
2023/05/12 09:30:30;;;;;;;1.83;1.73;;;13.10;99.90;;;;;;5053767;28;20198;-73
2023/05/12 09:33:06;;;;;;;1.70;1.60;;;13.10;99.90;;;;;;5055601;28;20222;-71
2023/05/12 09:35:38;;;;;;;1.52;1.42;;;13.10;99.90;;;;;;5053945;28;20209;-72
2023/05/12 09:38:07;;;;;;;1.80;1.70;;;13.10;99.90;;;;;;5057348;28;20206;-72
2023/05/12 09:40:34;;;;;;;1.70;1.60;;;13.00;99.90;;;;;;5054489;28;20548;-73
2023/05/12 09:43:02;;;;;;;2.42;1.90;;;13.20;99.90;;;;;;5052653;28;20210;-74
2023/05/12 09:45:33;;;;;;;2.03;1.83;;;13.30;99.90;;;;;;5054702;28;20230;-72
2023/05/12 09:48:07;;;;;;;1.70;1.60;;;13.30;99.90;;;;;;5056194;28;20280;-72
2023/05/12 09:50:34;;;;;;;4.05;1.50;;;13.40;99.90;;;;;;5054060;28;20692;-71
2023/05/12 09:53:02;;;;;;;1.90;1.75;;;13.50;99.90;;;;;;5055346;28;20244;-74
2023/05/12 09:55:30;;;;;;;1.65;1.55;;;13.50;99.90;;;;;;5058830;28;20238;-72
2023/05/12 09:57:58;;;;;;;1.95;1.85;;;13.50;99.90;;;;;;5058143;28;20665;-72
2023/05/12 10:00:27;;;;;;;1.90;1.80;;;13.60;99.90;;;;;;5055751;28;20268;-72
2023/05/12 10:02:54;;;;;;;2.45;1.80;;;13.60;99.90;;;;;;5060505;28;20309;-72
2023/05/12 10:05:22;;;;;;;2.00;1.90;;;13.60;99.90;;;;;;5056585;28;20685;-71
2023/05/12 10:07:51;;;;;;;2.22;2.03;;;13.60;99.90;;;;;;5058227;28;20194;-72
2023/05/12 10:10:23;;;;;;;2.08;1.98;;;13.50;99.90;;;;;;5059499;28;20222;-73
2023/05/12 10:12:50;;;;;;;1.83;1.73;;;13.30;99.90;;;;;;5059187;28;20304;-73
2023/05/12 10:15:19;;;;;;;2.72;1.95;;;13.20;99.90;;;;;;5058702;28;20407;-72
2023/05/12 10:17:48;;;;;;;2.10;1.90;;;13.20;99.90;;;;;;5056220;28;20629;-72
2023/05/12 10:20:17;;;;;;;1.60;1.52;;;13.10;99.90;;;;;;5058851;28;20293;-72
2023/05/12 10:22:44;;;;;;;1.65;1.55;;;13.10;99.90;;;;;;5056989;28;20546;-72
2023/05/12 10:25:12;;;;;;;1.75;1.65;;;13.20;99.90;;;;;;5059735;28;20708;-73
2023/05/12 10:27:40;;;;;;;1.50;1.40;;;13.10;99.90;;;;;;5053780;28;20210;-72
2023/05/12 10:30:08;;;;;;;1.60;1.50;;;13.10;99.90;;;;;;5052709;28;20278;-74
2023/05/12 10:32:35;;;;;;;1.77;1.60;;;13.10;99.90;;;;;;5055231;28;20692;-76
2023/05/12 10:35:11;;;;;;;1.60;1.50;;;13.10;99.90;;;;;;5055250;28;20199;-72
2023/05/12 10:37:39;;;;;;;1.58;1.48;;;13.10;99.90;;;;;;5058057;28;20842;-72
2023/05/12 10:40:09;;;;;;;1.00;1.00;;;13.10;99.90;;;;;;5055541;28;20291;-72
2023/05/12 10:42:41;;;;;;;1.60;1.50;;;13.10;99.90;;;;;;5059434;28;20213;-72
2023/05/12 10:45:17;;;;;;;1.20;1.10;;;13.10;99.90;;;;;;5056455;28;20324;-72
2023/05/12 10:47:44;;;;;;;1.25;1.25;;;13.10;99.90;;;;;;5055958;28;20198;-73
2023/05/12 10:50:13;;;;;;;1.20;1.20;;;13.10;99.90;;;;;;5055976;28;20219;-72
2023/05/12 10:52:41;;;;;;;1.50;1.40;;;13.10;99.90;;;;;;5056522;28;20302;-74
2023/05/12 10:55:13;;;;;;;1.60;1.50;;;13.20;99.90;;;;;;5055358;28;20237;-72
2023/05/12 10:57:50;;;;;;;1.25;1.25;;;13.30;99.90;;;;;;5055453;28;20595;-73
2023/05/12 11:00:24;;;;;;;1.35;1.30;;;13.40;99.90;;;;;;5063777;28;20202;-72
2023/05/12 11:02:51;;;;;;;1.00;1.00;;;13.30;99.90;;;;;;5057049;28;20313;-72
2023/05/12 11:05:19;;;;;;;1.38;1.38;;;13.30;99.90;;;;;;5060739;28;20229;-74
2023/05/12 11:07:50;;;;;;;1.30;1.20;;;13.40;99.90;;;;;;5053218;28;20238;-75
2023/05/12 11:10:17;;;;;;;1.00;1.00;;;13.50;99.90;;;;;;5051979;28;20437;-74
2023/05/12 11:12:44;;;;;;;1.00;1.00;;;13.60;99.90;;;;;;5056204;28;20246;-73
2023/05/12 11:15:12;;;;;;;1.50;1.23;;;13.70;99.90;;;;;;5056633;28;20210;-74
2023/05/12 11:17:40;;;;;;;1.40;1.30;;;13.70;99.90;;;;;;5056811;28;20228;-73
2023/05/12 11:20:09;;;;;;;1.10;1.10;;;13.70;99.90;;;;;;5054823;28;20198;-73
2023/05/12 11:22:40;;;;;;;1.10;1.00;;;13.70;99.90;;;;;;5056919;28;20485;-73
2023/05/12 11:25:11;;;;;;;1.40;1.30;;;13.70;99.90;;;;;;5059009;28;20202;-75
2023/05/12 11:27:42;;;;;;;1.10;1.10;;;13.60;99.90;;;;;;5052443;28;20459;-74
2023/05/12 11:30:09;;;;;;;1.13;1.13;;;13.60;99.90;;;;;;5056230;28;20213;-75
2023/05/12 11:32:36;;;;;;;1.05;1.00;;;13.60;99.90;;;;;;5055357;28;20601;-73
2023/05/12 11:35:14;;;;;;;1.70;1.60;;;13.70;99.90;;;;;;5053198;28;20293;-77
2023/05/12 11:37:44;;;;;;;1.02;1.02;;;13.80;99.90;;;;;;5055115;28;20488;-74
2023/05/12 11:40:19;;;;;;;0.90;0.90;;;13.90;99.90;;;;;;5053449;28;20234;-76
2023/05/12 11:42:50;;;;;;;1.40;1.30;;;13.90;99.90;;;;;;5053484;28;20519;-75
2023/05/12 11:45:26;;;;;;;0.90;0.90;;;14.00;99.90;;;;;;5055448;28;20206;-73
2023/05/12 11:47:53;;;;;;;0.98;0.98;;;14.10;99.90;;;;;;5053020;28;20288;-72
2023/05/12 11:50:22;;;;;;;0.90;0.90;;;14.40;99.90;;;;;;5054859;28;20226;-72
2023/05/12 11:52:52;;;;;;;0.93;0.93;;;14.80;99.90;;;;;;5054276;28;20229;-73
2023/05/12 11:55:24;;;;;;;1.10;1.10;;;15.10;99.90;;;;;;5055269;28;20388;-74
2023/05/12 11:57:59;;;;;;;1.33;1.20;;;15.20;99.90;;;;;;5050675;28;20350;-73
2023/05/12 12:00:31;;;;;;;2.45;1.23;;;15.20;99.90;;;;;;5053949;28;20255;-75
2023/05/12 12:03:11;;;;;;;1.45;1.35;;;15.40;99.90;;;;;;5053171;28;20218;-74
2023/05/12 12:05:39;;;;;;;1.90;1.50;;;15.40;99.90;;;;;;5052986;28;20329;-76
2023/05/12 12:08:11;;;;;;;1.00;1.00;;;15.50;99.90;;;;;;5056629;28;20203;-76
2023/05/12 12:10:38;;;;;;;1.48;1.38;;;15.50;99.90;;;;;;5057094;28;20571;-72
2023/05/12 12:13:05;;;;;;;1.60;1.50;;;15.70;99.90;;;;;;5054888;28;20442;-73
2023/05/12 12:15:32;;;;;;;1.30;1.20;;;16.30;99.90;;;;;;5057539;28;20221;-75
2023/05/12 12:17:59;;;;;;;1.27;1.27;;;16.80;99.90;;;;;;5060474;28;20382;-73
2023/05/12 12:20:26;;;;;;;1.23;1.13;;;17.40;99.90;;;;;;5058303;28;20676;-73
2023/05/12 12:22:53;;;;;;;1.02;1.02;;;17.70;99.90;;;;;;5054621;28;20310;-75
2023/05/12 12:25:22;;;;;;;0.90;0.90;;;17.90;99.90;;;;;;5055573;28;20241;-75
2023/05/12 12:27:49;;;;;;;0.98;0.98;;;17.90;99.90;;;;;;5052875;28;20731;-73
2023/05/12 12:30:16;;;;;;;1.83;0.90;;;18.30;99.90;;;;;;5053252;28;20194;-76
2023/05/12 12:32:44;;;;;;;1.00;1.00;;;18.50;99.90;;;;;;5053999;28;20214;-75
2023/05/12 12:35:12;;;;;;;1.08;1.08;;;18.50;99.90;;;;;;5050454;28;20202;-74
2023/05/12 12:37:39;;;;;;;0.80;0.80;;;18.40;99.90;;;;;;5052663;28;20206;-74
2023/05/12 12:40:08;;;;;;;0.95;0.95;;;18.40;99.90;;;;;;5053169;28;20273;-75
2023/05/12 12:42:39;;;;;;;0.93;0.93;;;18.50;99.90;;;;;;5053482;28;20565;-75
2023/05/12 12:45:08;;;;;;;3.33;1.10;;;18.50;99.90;;;;;;5051024;28;20213;-73
2023/05/12 12:47:36;;;;;;;1.38;1.27;;;18.50;99.90;;;;;;5053006;28;20692;-74
2023/05/12 12:50:04;;;;;;;1.35;0.93;;;18.50;99.90;;;;;;5049572;28;20698;-73
2023/05/12 12:52:31;;;;;;;0.90;0.90;;;18.10;99.90;;;;;;5053926;28;20225;-73
2023/05/12 12:54:58;;;;;;;0.90;0.90;;;17.80;99.90;;;;;;5053214;28;20230;-73